createdAt,value
2022-08-05T00:02:18.883Z,82.39
2022-08-05T00:04:55.282Z,82.19
2022-08-05T00:07:59.047Z,82.26
2022-08-05T00:10:11.119Z,81.95
2022-08-05T00:12:55.900Z,82.10
2022-08-05T00:15:55.933Z,81.71
2022-08-05T00:18:21.799Z,81.96
2022-08-05T00:20:51.612Z,81.46
2022-08-05T00:23:44.340Z,82.04
2022-08-05T00:26:08.066Z,82.11
2022-08-05T00:28:40.766Z,81.99
2022-08-05T00:31:13.299Z,81.52
2022-08-05T00:34:55.923Z,81.36
2022-08-05T00:37:11.344Z,81.70
2022-08-05T00:39:37.034Z,81.29
2022-08-05T00:45:01.940Z,80.34
2022-08-05T00:47:53.331Z,80.53
2022-08-05T00:50:17.105Z,80.98
2022-08-05T00:52:45.409Z,80.36
2022-08-05T00:55:20.064Z,80.46
2022-08-05T00:57:55.503Z,81.01
2022-08-05T01:03:24.300Z,79.12
2022-08-05T01:05:59.032Z,79.50
2022-08-05T01:08:42.985Z,79.34
2022-08-05T01:11:22.458Z,79.34
2022-08-05T01:14:04.064Z,78.86
2022-08-05T01:16:46.173Z,78.03
2022-08-05T01:19:56.230Z,78.47
2022-08-05T01:22:50.280Z,79.03
2022-08-05T01:25:57.893Z,78.66
2022-08-05T01:28:27.675Z,77.34
2022-08-05T01:30:59.350Z,77.46
2022-08-05T01:33:35.325Z,77.47
2022-08-05T01:36:13.185Z,76.40
2022-08-05T01:38:55.158Z,78.59
2022-08-05T01:41:25.682Z,77.97
2022-08-05T01:43:54.578Z,78.38
2022-08-05T01:46:41.387Z,78.00
2022-08-05T01:49:23.896Z,77.79
2022-08-05T01:52:19.153Z,77.87
2022-08-05T01:54:56.894Z,76.49
2022-08-05T01:58:11.725Z,77.85
2022-08-05T02:00:49.434Z,77.16
2022-08-05T02:03:31.773Z,76.94
2022-08-05T02:06:03.590Z,77.73
2022-08-05T02:08:54.753Z,77.49
2022-08-05T02:11:42.524Z,77.14
2022-08-05T02:14:32.606Z,76.58
2022-08-05T02:17:07.833Z,77.52
2022-08-05T02:19:49.860Z,78.02
2022-08-05T02:22:27.317Z,78.16
2022-08-05T02:28:28.352Z,78.38
2022-08-05T02:31:34.783Z,78.42
2022-08-05T02:34:11.764Z,78.18
2022-08-05T02:36:58.400Z,77.52
2022-08-05T02:39:29.460Z,77.58
2022-08-05T02:42:01.451Z,78.14
2022-08-05T02:44:31.922Z,77.64
2022-08-05T02:49:51.835Z,78.76
2022-08-05T02:52:29.464Z,79.50
2022-08-05T02:58:22.269Z,80.13
2022-08-05T03:00:53.435Z,80.88
2022-08-05T03:03:23.547Z,81.58
2022-08-05T03:06:55.042Z,82.11
2022-08-05T03:08:42.718Z,82.89
2022-08-05T03:11:57.216Z,83.30
2022-08-05T03:14:20.185Z,82.36
2022-08-05T03:17:12.883Z,82.58
2022-08-05T03:19:41.957Z,82.24
2022-08-05T03:22:39.018Z,82.10
2022-08-05T03:25:33.878Z,82.26
2022-08-05T03:28:14.045Z,82.82
2022-08-05T03:30:44.429Z,82.74
2022-08-05T03:33:42.180Z,82.76
2022-08-05T03:36:17.777Z,82.89
2022-08-05T03:39:08.072Z,83.31
2022-08-05T03:41:45.353Z,82.82
2022-08-05T03:44:19.895Z,83.66
2022-08-05T03:46:48.878Z,83.02
2022-08-05T03:50:08.599Z,82.80
2022-08-05T03:55:33.981Z,82.87
2022-08-05T03:56:34.803Z,83.11
2022-08-05T03:59:07.602Z,82.87
2022-08-05T04:01:42.492Z,82.86
2022-08-05T04:04:21.334Z,83.21
2022-08-05T04:06:51.187Z,82.91
2022-08-05T04:09:20.340Z,82.80
2022-08-05T04:12:04.770Z,83.16
2022-08-05T04:17:56.673Z,82.67
2022-08-05T04:20:24.896Z,82.87
2022-08-05T04:23:16.952Z,83.02
2022-08-05T04:26:09.132Z,82.85
2022-08-05T04:28:51.058Z,82.92
2022-08-05T04:31:45.228Z,83.27
2022-08-05T04:34:32.891Z,82.97
2022-08-05T04:40:19.617Z,83.51
2022-08-05T04:42:46.914Z,83.61
2022-08-05T04:45:48.762Z,83.88
2022-08-05T04:48:27.519Z,83.48
2022-08-05T04:51:01.756Z,83.78
2022-08-05T04:53:42.917Z,83.61
2022-08-05T04:56:34.244Z,83.63
2022-08-05T04:59:39.261Z,84.08
2022-08-05T05:02:36.893Z,84.06
2022-08-05T05:05:01.806Z,83.30
2022-08-05T05:07:32.591Z,83.94
2022-08-05T05:10:06.373Z,83.52
2022-08-05T05:12:36.592Z,84.13
2022-08-05T05:15:06.091Z,84.42
2022-08-05T05:17:55.797Z,83.32
2022-08-05T05:20:28.159Z,84.01
2022-08-05T05:23:08.428Z,84.05
2022-08-05T05:31:58.575Z,84.01
2022-08-05T05:34:32.007Z,84.86
2022-08-05T05:39:50.990Z,83.08
2022-08-05T05:45:38.902Z,84.18
2022-08-05T05:48:16.912Z,83.33
2022-08-05T05:50:44.901Z,83.94
2022-08-05T05:53:22.049Z,83.69
2022-08-05T05:56:00.896Z,83.07
2022-08-05T06:01:23.339Z,82.62
2022-08-05T06:04:01.256Z,83.70
2022-08-05T06:06:36.011Z,83.00
2022-08-05T06:09:07.678Z,83.69
2022-08-05T06:11:35.210Z,82.72
2022-08-05T06:17:30.885Z,83.70
2022-08-05T06:23:16.922Z,83.28
2022-08-05T06:26:12.220Z,83.27
2022-08-05T06:28:32.918Z,83.73
2022-08-05T06:31:11.202Z,83.90
2022-08-05T06:34:09.028Z,83.82
2022-08-05T06:36:57.124Z,83.86
2022-08-05T06:39:27.874Z,82.08
2022-08-05T06:42:04.113Z,83.40
2022-08-05T06:44:37.833Z,83.04
2022-08-05T06:47:30.021Z,82.79
2022-08-05T06:50:00.119Z,83.87
2022-08-05T06:52:38.157Z,83.61
2022-08-05T06:55:14.287Z,84.36
2022-08-05T06:58:02.583Z,82.41
2022-08-05T07:01:07.267Z,82.63
2022-08-05T07:03:35.111Z,83.93
2022-08-05T07:06:05.955Z,83.32
2022-08-05T07:08:47.704Z,83.72
2022-08-05T07:11:25.620Z,81.91
2022-08-05T07:14:20.055Z,81.48
2022-08-05T07:17:59.180Z,82.06
2022-08-05T07:22:58.399Z,82.25
2022-08-05T07:25:56.397Z,81.48
2022-08-05T07:28:23.335Z,80.86
2022-08-05T07:30:52.893Z,81.33
2022-08-05T07:33:36.792Z,81.89
2022-08-05T07:36:21.610Z,81.94
2022-08-05T07:38:49.394Z,81.39
2022-08-05T07:42:14.609Z,81.56
2022-08-05T07:44:23.066Z,81.87
2022-08-05T07:46:50.992Z,82.01
2022-08-05T07:49:24.973Z,81.53
2022-08-05T07:52:00.046Z,81.80
2022-08-05T07:54:30.398Z,81.47
2022-08-05T07:57:14.657Z,80.83
2022-08-05T07:59:48.908Z,79.97
2022-08-05T08:02:17.850Z,81.33
2022-08-05T08:04:53.534Z,81.49
2022-08-05T08:07:22.396Z,81.48
2022-08-05T08:09:57.553Z,81.70
2022-08-05T08:12:36.993Z,81.54
2022-08-05T08:15:15.793Z,81.50
2022-08-05T08:17:52.727Z,82.36
2022-08-05T08:20:43.394Z,80.37
2022-08-05T08:24:00.421Z,80.85
2022-08-05T08:26:29.574Z,82.03
2022-08-05T08:28:59.836Z,81.60
2022-08-05T08:34:30.196Z,82.28
2022-08-05T08:37:06.637Z,82.36
2022-08-05T08:39:37.124Z,83.04
2022-08-05T08:42:10.757Z,83.01
2022-08-05T08:44:55.014Z,82.59
2022-08-05T08:48:05.785Z,82.36
2022-08-05T08:51:03.650Z,83.11
2022-08-05T08:54:14.923Z,81.84
2022-08-05T08:56:47.893Z,82.02
2022-08-05T08:59:20.771Z,82.83
2022-08-05T09:01:57.295Z,82.40
2022-08-05T09:06:07.694Z,81.20
2022-08-05T09:08:30.289Z,81.94
2022-08-05T09:10:59.313Z,81.61
2022-08-05T09:14:01.089Z,81.46
2022-08-05T09:16:23.082Z,82.11
2022-08-05T09:18:55.356Z,82.08
2022-08-05T09:22:22.143Z,82.35
2022-08-05T09:24:42.645Z,81.94
2022-08-05T09:28:04.703Z,82.20
2022-08-05T09:30:30.983Z,82.25
2022-08-05T09:33:02.385Z,82.54
2022-08-05T09:35:37.146Z,82.33
2022-08-05T09:38:12.611Z,82.54
2022-08-05T09:40:55.088Z,82.52
2022-08-05T09:43:41.725Z,82.63
2022-08-05T09:46:28.452Z,82.31
2022-08-05T09:51:49.637Z,81.72
2022-08-05T09:54:55.508Z,82.47
2022-08-05T09:57:39.561Z,80.69
2022-08-05T10:00:16.859Z,80.89
2022-08-05T10:02:50.482Z,81.80
2022-08-05T10:05:20.845Z,78.66
2022-08-05T10:08:36.877Z,79.76
2022-08-05T10:14:27.893Z,82.27
2022-08-05T10:17:37.354Z,80.92
2022-08-05T10:20:10.936Z,82.34
2022-08-05T10:22:42.883Z,82.61
2022-08-05T10:25:16.981Z,82.58
2022-08-05T10:28:16.819Z,82.82
2022-08-05T10:32:51.578Z,82.53
2022-08-05T10:33:36.007Z,80.75
2022-08-05T10:36:07.769Z,80.83
2022-08-05T10:38:44.967Z,81.74
2022-08-05T10:41:46.537Z,81.37
2022-08-05T10:44:19.126Z,81.13
2022-08-05T10:46:54.700Z,81.85
2022-08-05T10:49:27.524Z,82.56
2022-08-05T10:52:03.205Z,82.85
2022-08-05T10:54:56.410Z,82.36
2022-08-05T10:57:29.433Z,82.99
2022-08-05T11:00:29.873Z,83.40
2022-08-05T11:03:22.766Z,82.71
2022-08-05T11:06:15.326Z,82.86
2022-08-05T11:09:17.379Z,81.92
2022-08-05T11:11:54.383Z,83.26
2022-08-05T11:15:00.922Z,82.82
2022-08-05T11:17:59.782Z,83.13
2022-08-05T11:20:43.722Z,83.42
2022-08-05T11:24:03.875Z,83.13
2022-08-05T11:26:43.159Z,82.66
2022-08-05T11:29:34.695Z,82.50
2022-08-05T11:36:07.521Z,83.77
2022-08-05T11:39:06.256Z,83.93
2022-08-05T11:42:01.405Z,83.37
2022-08-05T11:45:03.421Z,83.00
2022-08-05T11:50:32.808Z,82.63
2022-08-05T11:53:06.316Z,82.00
2022-08-05T11:55:37.042Z,82.56
2022-08-05T11:58:09.203Z,82.77
2022-08-05T12:01:08.335Z,82.65
2022-08-05T12:03:56.149Z,81.76
2022-08-05T12:06:54.636Z,83.19
2022-08-05T12:09:53.033Z,82.90
2022-08-05T12:12:30.162Z,81.64
2022-08-05T12:18:09.979Z,82.57
2022-08-05T12:20:44.306Z,82.65
2022-08-05T12:23:13.439Z,81.64
2022-08-05T12:25:52.660Z,82.72
2022-08-05T12:31:46.046Z,81.13
2022-08-05T14:02:19.936Z,74.96
2022-08-05T14:05:29.498Z,73.84
2022-08-05T14:11:03.370Z,76.64
2022-08-05T14:14:09.098Z,76.52
2022-08-05T14:17:04.408Z,71.77
2022-08-05T14:19:55.404Z,75.30
2022-08-05T14:22:56.022Z,72.19
2022-08-05T14:25:27.795Z,74.78
2022-08-05T15:13:10.000Z,75.61
2022-08-05T15:15:55.584Z,77.22
2022-08-05T15:21:30.538Z,75.69
2022-08-05T15:23:59.419Z,73.02
2022-08-05T15:26:37.115Z,73.00
2022-08-05T15:29:05.581Z,73.94
2022-08-05T15:31:51.019Z,74.60
2022-08-05T15:34:32.216Z,74.90
2022-08-05T15:37:06.797Z,75.77
2022-08-05T15:41:03.072Z,74.55
2022-08-05T15:43:12.780Z,75.69
2022-08-05T15:46:00.705Z,76.25
2022-08-05T15:48:33.510Z,77.00
2022-08-05T15:51:05.965Z,79.01
2022-08-05T15:53:38.329Z,79.40
2022-08-05T15:56:25.264Z,80.58
2022-08-05T15:58:59.048Z,78.48
2022-08-05T16:01:29.342Z,79.46
2022-08-05T16:04:03.201Z,79.93
2022-08-05T16:06:30.909Z,79.62
2022-08-05T16:08:58.928Z,79.27
2022-08-05T16:11:42.339Z,79.62
2022-08-05T16:14:17.190Z,77.92
2022-08-05T16:17:10.334Z,77.70
2022-08-05T16:20:03.341Z,76.56
2022-08-05T16:22:34.675Z,78.01
2022-08-05T16:25:33.834Z,76.84
2022-08-05T16:28:05.625Z,79.02
2022-08-05T16:30:36.093Z,77.20
2022-08-05T16:33:05.014Z,79.42
2022-08-05T16:35:43.002Z,79.90
2022-08-05T16:38:21.873Z,80.70
2022-08-05T16:40:59.872Z,76.28
2022-08-05T16:43:34.491Z,76.23
2022-08-05T16:46:23.846Z,75.98
2022-08-05T16:51:51.092Z,75.88
2022-08-05T16:54:48.261Z,76.16
2022-08-05T16:57:26.765Z,78.07
2022-08-05T17:00:14.242Z,79.34
2022-08-05T17:03:43.534Z,78.49
2022-08-05T17:06:11.158Z,76.49
2022-08-05T17:08:52.676Z,77.30
2022-08-05T17:11:27.700Z,76.87
2022-08-05T17:16:47.024Z,78.48
2022-08-05T17:19:25.967Z,77.19
2022-08-05T17:21:52.914Z,75.41
2022-08-05T17:24:35.183Z,78.55
2022-08-05T17:27:10.901Z,77.15
2022-08-05T17:29:40.819Z,77.49
2022-08-05T17:32:16.841Z,77.18
2022-08-05T17:35:20.625Z,75.63
2022-08-05T17:37:49.364Z,76.97
2022-08-05T17:40:22.888Z,76.79
2022-08-05T17:42:52.803Z,75.48
2022-08-05T17:45:23.054Z,76.19
2022-08-05T17:47:54.857Z,77.60
2022-08-05T17:50:28.375Z,77.80
2022-08-05T17:52:59.104Z,73.24
2022-08-05T17:55:37.294Z,76.00
2022-08-05T17:58:12.218Z,74.34
2022-08-05T18:00:47.781Z,74.36
2022-08-05T18:06:31.163Z,75.17
2022-08-05T18:09:06.085Z,77.08
2022-08-05T18:11:42.873Z,76.44
2022-08-05T18:14:13.518Z,74.52
2022-08-05T18:19:41.036Z,73.27
2022-08-05T18:22:22.902Z,74.72
2022-08-05T18:24:50.871Z,73.34
2022-08-05T18:27:19.194Z,74.85
2022-08-05T18:29:53.693Z,72.64
2022-08-05T18:32:28.269Z,75.21
2022-08-05T18:34:57.940Z,75.10
2022-08-05T18:37:34.683Z,73.52
2022-08-05T18:43:38.355Z,72.81
2022-08-05T18:46:10.974Z,75.34
2022-08-05T18:48:44.988Z,75.61
2022-08-05T18:52:05.106Z,74.64
2022-08-05T18:54:20.865Z,74.57
2022-08-05T18:56:54.020Z,75.90
2022-08-05T18:59:43.651Z,76.73
2022-08-05T19:02:26.592Z,75.05
2022-08-05T19:05:02.982Z,74.75
2022-08-05T19:07:50.339Z,72.30
2022-08-05T19:10:28.079Z,74.84
2022-08-05T19:13:21.629Z,76.09
2022-08-05T19:15:59.712Z,74.89
2022-08-05T19:18:57.184Z,75.73
2022-08-05T19:21:27.678Z,75.54
2022-08-05T19:24:05.142Z,74.01
2022-08-05T19:27:06.022Z,75.54
2022-08-05T19:29:36.153Z,75.76
2022-08-05T19:32:08.576Z,75.04
2022-08-05T19:34:39.002Z,75.91
2022-08-05T19:37:07.014Z,76.54
2022-08-05T19:39:45.112Z,74.77
2022-08-05T19:42:35.383Z,75.89
2022-08-05T19:45:05.979Z,76.21
2022-08-05T19:47:34.060Z,76.92
2022-08-05T19:50:07.865Z,77.10
2022-08-05T19:52:38.962Z,77.40
2022-08-05T19:56:15.165Z,76.92
2022-08-05T19:58:14.464Z,77.00
2022-08-05T20:00:54.256Z,76.93
2022-08-05T20:03:22.981Z,77.13
2022-08-05T20:05:56.690Z,77.36
2022-08-05T20:08:52.344Z,77.31
2022-08-05T20:11:25.181Z,77.61
2022-08-05T20:14:26.796Z,77.55
2022-08-05T20:16:55.838Z,78.10
2022-08-05T20:19:25.933Z,78.01
2022-08-05T20:22:03.095Z,78.39
2022-08-05T20:27:27.497Z,78.55
2022-08-05T20:30:15.316Z,78.28
2022-08-05T20:32:46.955Z,78.62
2022-08-05T20:35:14.945Z,78.36
2022-08-05T20:38:07.809Z,78.64
2022-08-05T20:40:33.025Z,78.28
2022-08-05T20:43:08.754Z,78.38
2022-08-05T20:45:55.914Z,78.54
2022-08-05T20:48:24.896Z,78.65
2022-08-05T20:50:58.019Z,78.64
2022-08-05T20:53:36.450Z,78.98
2022-08-05T20:56:42.161Z,79.02
2022-08-05T20:59:18.968Z,78.98
2022-08-05T21:02:19.304Z,79.17
2022-08-05T21:07:51.991Z,79.09
2022-08-05T21:10:21.554Z,79.54
2022-08-05T21:13:08.952Z,79.60
2022-08-05T21:15:44.387Z,79.55
2022-08-05T21:21:05.296Z,79.96
2022-08-05T21:23:37.061Z,79.98
2022-08-05T21:26:31.438Z,80.03
2022-08-05T21:29:26.654Z,80.09
2022-08-05T21:32:02.503Z,80.31
2022-08-05T21:34:31.713Z,80.48
2022-08-05T21:37:01.016Z,80.71
2022-08-05T21:39:29.842Z,80.41
2022-08-05T21:42:01.457Z,80.92
2022-08-05T21:44:32.074Z,80.85
2022-08-05T21:46:59.903Z,81.06
2022-08-05T21:49:58.707Z,81.35
2022-08-05T21:52:28.344Z,81.51
2022-08-05T21:55:06.397Z,81.63
2022-08-05T21:57:35.966Z,81.29
2022-08-05T22:00:11.186Z,81.84
2022-08-05T22:03:09.923Z,82.11
2022-08-05T22:05:48.836Z,82.83
2022-08-05T22:08:22.066Z,82.41
2022-08-05T22:10:57.161Z,82.07
2022-08-05T22:14:05.897Z,81.93
2022-08-05T22:16:41.156Z,82.20
2022-08-05T22:19:00.981Z,81.94
2022-08-05T22:21:29.114Z,82.56
2022-08-05T22:28:11.166Z,82.53
2022-08-05T22:30:16.110Z,82.19
2022-08-05T22:32:49.005Z,82.11
2022-08-05T22:35:21.989Z,82.37
2022-08-05T22:37:58.779Z,81.92
2022-08-05T22:43:37.244Z,82.39
2022-08-05T22:46:13.574Z,82.09
2022-08-05T22:48:50.978Z,82.21
2022-08-05T22:52:02.539Z,82.14
2022-08-05T23:00:23.022Z,81.96
2022-08-05T23:02:53.224Z,82.09
2022-08-05T23:05:22.234Z,82.03
2022-08-05T23:07:52.188Z,82.09
2022-08-05T23:10:24.856Z,82.34
2022-08-05T23:12:57.230Z,82.12
2022-08-05T23:15:30.017Z,82.01
2022-08-05T23:18:06.045Z,81.92
2022-08-05T23:20:43.221Z,81.94
2022-08-05T23:23:10.832Z,81.72
2022-08-05T23:25:52.253Z,81.93
2022-08-05T23:28:30.970Z,82.09
2022-08-05T23:31:07.019Z,82.12
2022-08-05T23:34:04.733Z,81.48
2022-08-05T23:36:39.710Z,81.61
2022-08-05T23:39:32.074Z,81.89
2022-08-05T23:42:08.614Z,82.02
2022-08-05T23:44:46.824Z,82.02
2022-08-05T23:47:26.867Z,82.36
2022-08-05T23:49:55.750Z,81.99
2022-08-05T23:52:32.262Z,82.03
2022-08-05T23:55:10.100Z,82.15
2022-08-05T23:57:38.870Z,82.20
